Terminal Aerodrome Forecast
Issued by NWS Upton, NY

Home | Current Version | Previous Version | Text Only | Print | Product List | Glossary On
Versions: 1 2 3 4 5 6 7 8 9 10 11 12 13 14 15 16 17 18 19 20 21 22 23 24 25 26 27 28
000
FTUS41 KOKX 050841 AAA
TAFEWR
TAF AMD
KEWR 050841Z 0509/0612 23008KT P6SM FEW250
     FM051200 27008KT P6SM FEW080 BKN120
     FM051400 32008KT P6SM SCT050 BKN100
     FM051800 25007KT P6SM SCT050 SCT150 BKN250
     FM060100 VRB05KT P6SM SCT050 BKN100
     FM060700 03007KT 6SM -SHRA BKN040=

USA.gov is the U.S. government's official web portal to all federal, state and local government web resources and services.